sensor_id;sensor_type;location;lat;lon;timestamp;pressure;altitude;pressure_sealevel;temperature;humidity
61961;BME280;47923;42.506;24.192;2023-05-28T00:01:59;95315.41;;;13.99;92.94
61961;BME280;47923;42.506;24.192;2023-05-28T00:04:25;95320.44;;;13.97;93.01
61961;BME280;47923;42.506;24.192;2023-05-28T00:06:51;95045.22;;;12.10;91.91
61961;BME280;47923;42.506;24.192;2023-05-28T00:09:19;95249.69;;;13.58;91.70
61961;BME280;47923;42.506;24.192;2023-05-28T00:11:45;95315.03;;;14.01;90.86
61961;BME280;47923;42.506;24.192;2023-05-28T00:14:11;95276.13;;;13.68;91.02
61961;BME280;47923;42.506;24.192;2023-05-28T00:16:36;95224.06;;;13.41;91.33
61961;BME280;47923;42.506;24.192;2023-05-28T00:19:03;95301.84;;;13.96;92.10
61961;BME280;47923;42.506;24.192;2023-05-28T00:21:29;95108.59;;;12.57;92.64
61961;BME280;47923;42.506;24.192;2023-05-28T00:23:58;95186.69;;;13.13;93.56
61961;BME280;47923;42.506;24.192;2023-05-28T00:26:24;95306.47;;;13.92;94.65
61961;BME280;47923;42.506;24.192;2023-05-28T00:28:50;95227.91;;;13.33;94.92
61961;BME280;47923;42.506;24.192;2023-05-28T00:31:15;95297.91;;;13.82;95.04
61961;BME280;47923;42.506;24.192;2023-05-28T00:33:41;95216.25;;;13.29;93.33
61961;BME280;47923;42.506;24.192;2023-05-28T00:36:09;95165.69;;;12.99;94.09
61961;BME280;47923;42.506;24.192;2023-05-28T00:38:36;95280.84;;;13.82;93.40
61961;BME280;47923;42.506;24.192;2023-05-28T00:41:01;95049.97;;;12.27;93.88
61961;BME280;47923;42.506;24.192;2023-05-28T00:43:27;95289.75;;;13.86;94.17
61961;BME280;47923;42.506;24.192;2023-05-28T00:45:56;95145.19;;;13.02;94.49
61961;BME280;47923;42.506;24.192;2023-05-28T00:48:23;95276.94;;;13.87;94.84
61961;BME280;47923;42.506;24.192;2023-05-28T00:50:49;95150.94;;;12.90;95.94
61961;BME280;47923;42.506;24.192;2023-05-28T00:53:15;95252.78;;;13.49;96.15
61961;BME280;47923;42.506;24.192;2023-05-28T00:55:41;95203.38;;;13.19;96.22
61961;BME280;47923;42.506;24.192;2023-05-28T00:58:06;95259.78;;;13.54;96.04
61961;BME280;47923;42.506;24.192;2023-05-28T01:00:36;95280.78;;;13.68;95.93
61961;BME280;47923;42.506;24.192;2023-05-28T01:03:02;95282.69;;;13.64;95.74
61961;BME280;47923;42.506;24.192;2023-05-28T01:05:29;95218.56;;;13.23;96.16
61961;BME280;47923;42.506;24.192;2023-05-28T01:08:01;94832.38;;;10.60;96.48
61961;BME280;47923;42.506;24.192;2023-05-28T01:10:28;95284.59;;;13.52;97.56
61961;BME280;47923;42.506;24.192;2023-05-28T01:12:54;95283.41;;;13.46;98.27
61961;BME280;47923;42.506;24.192;2023-05-28T01:15:19;95067.28;;;12.12;98.13
61961;BME280;47923;42.506;24.192;2023-05-28T01:17:45;95153.94;;;12.67;97.82
61961;BME280;47923;42.506;24.192;2023-05-28T01:20:13;95132.41;;;12.33;98.55
61961;BME280;47923;42.506;24.192;2023-05-28T01:22:45;95265.53;;;13.38;100.00
61961;BME280;47923;42.506;24.192;2023-05-28T01:25:12;95135.66;;;12.53;100.00
61961;BME280;47923;42.506;24.192;2023-05-28T01:27:41;95187.69;;;12.84;99.70
61961;BME280;47923;42.506;24.192;2023-05-28T01:30:08;95257.28;;;13.20;100.00
61961;BME280;47923;42.506;24.192;2023-05-28T01:32:40;95253.72;;;13.13;100.00
61961;BME280;47923;42.506;24.192;2023-05-28T01:35:07;95252.16;;;13.08;100.00
61961;BME280;47923;42.506;24.192;2023-05-28T01:37:38;95249.75;;;12.99;100.00
61961;BME280;47923;42.506;24.192;2023-05-28T01:40:06;95261.41;;;13.00;100.00
61961;BME280;47923;42.506;24.192;2023-05-28T01:42:34;95253.28;;;13.04;100.00
61961;BME280;47923;42.506;24.192;2023-05-28T01:45:01;94776.56;;;9.93;100.00
61961;BME280;47923;42.506;24.192;2023-05-28T01:47:27;95266.16;;;13.17;100.00
61961;BME280;47923;42.506;24.192;2023-05-28T01:49:53;95264.63;;;13.20;100.00
61961;BME280;47923;42.506;24.192;2023-05-28T01:52:19;95202.84;;;12.92;100.00
61961;BME280;47923;42.506;24.192;2023-05-28T01:54:45;95099.03;;;12.15;100.00
61961;BME280;47923;42.506;24.192;2023-05-28T01:57:11;95252.28;;;13.22;100.00
61961;BME280;47923;42.506;24.192;2023-05-28T01:59:37;94972.03;;;11.41;99.43
61961;BME280;47923;42.506;24.192;2023-05-28T02:02:03;95176.47;;;12.78;99.52
61961;BME280;47923;42.506;24.192;2023-05-28T02:04:28;95258.47;;;13.23;99.38
61961;BME280;47923;42.506;24.192;2023-05-28T02:06:54;95244.84;;;13.19;99.21
61961;BME280;47923;42.506;24.192;2023-05-28T02:09:21;95247.16;;;13.17;99.12
61961;BME280;47923;42.506;24.192;2023-05-28T02:11:46;95240.19;;;13.16;99.46
61961;BME280;47923;42.506;24.192;2023-05-28T02:14:12;94895.03;;;10.79;99.25
61961;BME280;47923;42.506;24.192;2023-05-28T02:16:41;95234.31;;;13.00;99.51
61961;BME280;47923;42.506;24.192;2023-05-28T02:19:07;95265.78;;;13.19;99.75
61961;BME280;47923;42.506;24.192;2023-05-28T02:21:32;95217.66;;;13.05;99.75
61961;BME280;47923;42.506;24.192;2023-05-28T02:24:00;95162.75;;;12.53;99.65
61961;BME280;47923;42.506;24.192;2023-05-28T02:26:25;95260.03;;;13.27;99.31
61961;BME280;47923;42.506;24.192;2023-05-28T02:28:50;95246.84;;;13.26;99.24
61961;BME280;47923;42.506;24.192;2023-05-28T02:31:16;95260.41;;;13.26;99.14
61961;BME280;47923;42.506;24.192;2023-05-28T02:33:42;95116.50;;;12.25;99.05
61961;BME280;47923;42.506;24.192;2023-05-28T02:36:08;95220.69;;;12.96;99.67
61961;BME280;47923;42.506;24.192;2023-05-28T02:38:37;95256.16;;;13.28;100.00
61961;BME280;47923;42.506;24.192;2023-05-28T02:41:03;95206.34;;;12.92;100.00
61961;BME280;47923;42.506;24.192;2023-05-28T02:43:28;95174.47;;;12.71;100.00
61961;BME280;47923;42.506;24.192;2023-05-28T02:45:54;95214.91;;;12.98;100.00
61961;BME280;47923;42.506;24.192;2023-05-28T02:48:19;95255.38;;;13.28;100.00
61961;BME280;47923;42.506;24.192;2023-05-28T02:50:45;95172.56;;;12.76;100.00
61961;BME280;47923;42.506;24.192;2023-05-28T02:53:10;95256.16;;;13.28;100.00
61961;BME280;47923;42.506;24.192;2023-05-28T02:55:36;95265.44;;;13.24;100.00
61961;BME280;47923;42.506;24.192;2023-05-28T02:58:01;94932.72;;;11.02;100.00
61961;BME280;47923;42.506;24.192;2023-05-28T03:00:28;95079.97;;;12.04;100.00
61961;BME280;47923;42.506;24.192;2023-05-28T03:02:54;95261.59;;;13.28;100.00
61961;BME280;47923;42.506;24.192;2023-05-28T03:05:19;95267.44;;;13.31;100.00
61961;BME280;47923;42.506;24.192;2023-05-28T03:07:45;95282.16;;;13.33;100.00
61961;BME280;47923;42.506;24.192;2023-05-28T03:10:10;95175.31;;;12.83;100.00
61961;BME280;47923;42.506;24.192;2023-05-28T03:12:36;95136.81;;;12.52;99.61
61961;BME280;47923;42.506;24.192;2023-05-28T03:15:02;95134.94;;;12.63;99.12
61961;BME280;47923;42.506;24.192;2023-05-28T03:17:27;95277.22;;;13.53;99.13
61961;BME280;47923;42.506;24.192;2023-05-28T03:19:53;95215.84;;;13.23;99.23
61961;BME280;47923;42.506;24.192;2023-05-28T03:22:20;95111.34;;;12.64;98.97
61961;BME280;47923;42.506;24.192;2023-05-28T03:24:45;95247.00;;;13.62;99.09
61961;BME280;47923;42.506;24.192;2023-05-28T03:27:12;95273.41;;;13.68;98.44
61961;BME280;47923;42.506;24.192;2023-05-28T03:29:37;95145.19;;;13.02;99.01
61961;BME280;47923;42.506;24.192;2023-05-28T03:32:03;95178.97;;;13.15;99.07
61961;BME280;47923;42.506;24.192;2023-05-28T03:34:28;95207.41;;;13.46;99.01
61961;BME280;47923;42.506;24.192;2023-05-28T03:36:54;95254.84;;;13.81;98.47
61961;BME280;47923;42.506;24.192;2023-05-28T03:39:20;95254.06;;;13.88;98.36
61961;BME280;47923;42.506;24.192;2023-05-28T03:41:46;95254.88;;;13.88;98.31
61961;BME280;47923;42.506;24.192;2023-05-28T03:44:12;95127.78;;;13.14;97.21
61961;BME280;47923;42.506;24.192;2023-05-28T03:46:37;94877.41;;;11.51;96.38
61961;BME280;47923;42.506;24.192;2023-05-28T03:49:04;95250.22;;;14.10;95.65
61961;BME280;47923;42.506;24.192;2023-05-28T03:51:29;95118.59;;;13.25;95.97
61961;BME280;47923;42.506;24.192;2023-05-28T03:53:57;95142.56;;;13.16;96.11
61961;BME280;47923;42.506;24.192;2023-05-28T03:56:22;95260.75;;;14.26;95.62
61961;BME280;47923;42.506;24.192;2023-05-28T03:58:48;95270.84;;;14.36;95.25
61961;BME280;47923;42.506;24.192;2023-05-28T04:01:13;95201.31;;;13.92;95.60
61961;BME280;47923;42.506;24.192;2023-05-28T04:03:39;95221.94;;;14.18;95.81
61961;BME280;47923;42.506;24.192;2023-05-28T04:06:05;95249.13;;;14.43;95.22
61961;BME280;47923;42.506;24.192;2023-05-28T04:08:32;95264.31;;;14.69;94.88
61961;BME280;47923;42.506;24.192;2023-05-28T04:10:58;95268.56;;;14.81;94.93
61961;BME280;47923;42.506;24.192;2023-05-28T04:13:23;95271.69;;;14.93;94.73
61961;BME280;47923;42.506;24.192;2023-05-28T04:15:49;94944.94;;;12.93;92.97
61961;BME280;47923;42.506;24.192;2023-05-28T04:18:15;94880.16;;;12.42;91.70
61961;BME280;47923;42.506;24.192;2023-05-28T04:20:40;95291.44;;;15.26;91.56
61961;BME280;47923;42.506;24.192;2023-05-28T04:23:07;95122.94;;;14.37;89.86
61961;BME280;47923;42.506;24.192;2023-05-28T04:25:33;95213.38;;;15.02;87.77
61961;BME280;47923;42.506;24.192;2023-05-28T04:27:59;95084.94;;;14.16;85.55
61961;BME280;47923;42.506;24.192;2023-05-28T04:30:26;95290.22;;;15.66;84.61
61961;BME280;47923;42.506;24.192;2023-05-28T04:32:51;95287.06;;;15.75;84.39
61961;BME280;47923;42.506;24.192;2023-05-28T04:35:17;95285.03;;;15.90;83.84
61961;BME280;47923;42.506;24.192;2023-05-28T04:37:43;95206.97;;;15.58;83.45
61961;BME280;47923;42.506;24.192;2023-05-28T04:40:10;95286.50;;;16.12;82.91
61961;BME280;47923;42.506;24.192;2023-05-28T04:42:41;95255.44;;;15.92;83.16
61961;BME280;47923;42.506;24.192;2023-05-28T04:45:08;95260.38;;;16.18;82.01
61961;BME280;47923;42.506;24.192;2023-05-28T04:47:35;95284.34;;;16.45;81.85
61961;BME280;47923;42.506;24.192;2023-05-28T04:50:02;95204.69;;;16.19;81.74
61961;BME280;47923;42.506;24.192;2023-05-28T04:52:31;95279.81;;;16.83;81.31
61961;BME280;47923;42.506;24.192;2023-05-28T04:54:58;95282.66;;;17.13;80.13
61961;BME280;47923;42.506;24.192;2023-05-28T04:57:23;95174.72;;;16.64;79.34
61961;BME280;47923;42.506;24.192;2023-05-28T04:59:49;95020.63;;;15.66;78.73
61961;BME280;47923;42.506;24.192;2023-05-28T05:02:15;95282.94;;;17.64;78.25
61961;BME280;47923;42.506;24.192;2023-05-28T05:04:44;95280.63;;;17.59;75.47
61961;BME280;47923;42.506;24.192;2023-05-28T05:07:11;95125.19;;;16.73;77.06
61961;BME280;47923;42.506;24.192;2023-05-28T05:09:37;95172.75;;;17.09;77.86
61961;BME280;47923;42.506;24.192;2023-05-28T05:12:02;95131.06;;;16.71;75.88
61961;BME280;47923;42.506;24.192;2023-05-28T05:14:28;95249.53;;;17.49;76.88
61961;BME280;47923;42.506;24.192;2023-05-28T05:16:53;95265.47;;;17.54;76.48
61961;BME280;47923;42.506;24.192;2023-05-28T05:19:18;95119.88;;;16.55;76.74
61961;BME280;47923;42.506;24.192;2023-05-28T05:21:44;95054.81;;;16.19;77.36
61961;BME280;47923;42.506;24.192;2023-05-28T05:24:10;95270.81;;;17.65;77.03
61961;BME280;47923;42.506;24.192;2023-05-28T05:26:35;95264.59;;;17.64;75.46
61961;BME280;47923;42.506;24.192;2023-05-28T05:29:01;95279.31;;;17.74;76.11
61961;BME280;47923;42.506;24.192;2023-05-28T05:31:26;95287.56;;;17.71;77.10
61961;BME280;47923;42.506;24.192;2023-05-28T05:33:52;95288.69;;;17.69;76.85
61961;BME280;47923;42.506;24.192;2023-05-28T05:36:18;95298.56;;;17.60;76.34
61961;BME280;47923;42.506;24.192;2023-05-28T05:38:43;95286.84;;;17.63;75.81
61961;BME280;47923;42.506;24.192;2023-05-28T05:41:11;95291.69;;;17.86;74.89
61961;BME280;47923;42.506;24.192;2023-05-28T05:43:37;95116.97;;;16.76;72.76
61961;BME280;47923;42.506;24.192;2023-05-28T05:46:02;95272.41;;;17.97;72.11
61961;BME280;47923;42.506;24.192;2023-05-28T05:48:28;95293.84;;;18.29;71.45
61961;BME280;47923;42.506;24.192;2023-05-28T05:50:54;95299.53;;;18.41;71.27
61961;BME280;47923;42.506;24.192;2023-05-28T05:53:21;95267.56;;;18.38;71.48
61961;BME280;47923;42.506;24.192;2023-05-28T05:55:47;95145.09;;;17.42;71.39
61961;BME280;47923;42.506;24.192;2023-05-28T05:58:13;95261.97;;;18.45;70.27
61961;BME280;47923;42.506;24.192;2023-05-28T06:00:39;95200.16;;;17.71;71.27
61961;BME280;47923;42.506;24.192;2023-05-28T06:03:05;94996.72;;;16.26;71.95
61961;BME280;47923;42.506;24.192;2023-05-28T06:05:32;95247.03;;;17.96;71.86
61961;BME280;47923;42.506;24.192;2023-05-28T06:07:57;95139.13;;;17.16;72.02
61961;BME280;47923;42.506;24.192;2023-05-28T06:10:23;95284.88;;;17.98;71.33
61961;BME280;47923;42.506;24.192;2023-05-28T06:12:48;95303.16;;;18.04;70.99
61961;BME280;47923;42.506;24.192;2023-05-28T06:15:14;95276.25;;;17.99;71.18
61961;BME280;47923;42.506;24.192;2023-05-28T06:17:39;95278.72;;;18.20;70.32
61961;BME280;47923;42.506;24.192;2023-05-28T06:20:07;95305.47;;;18.36;68.61
61961;BME280;47923;42.506;24.192;2023-05-28T06:22:33;95295.56;;;18.46;69.19
61961;BME280;47923;42.506;24.192;2023-05-28T06:24:58;95302.03;;;18.59;69.07
61961;BME280;47923;42.506;24.192;2023-05-28T06:27:26;95303.22;;;18.58;68.20
61961;BME280;47923;42.506;24.192;2023-05-28T06:29:51;95275.22;;;18.47;67.82
61961;BME280;47923;42.506;24.192;2023-05-28T06:32:17;95310.97;;;18.90;64.64
61961;BME280;47923;42.506;24.192;2023-05-28T06:34:42;95324.13;;;19.22;64.22
61961;BME280;47923;42.506;24.192;2023-05-28T06:37:08;95245.06;;;19.01;62.01
61961;BME280;47923;42.506;24.192;2023-05-28T06:39:34;95203.16;;;18.57;63.28
61961;BME280;47923;42.506;24.192;2023-05-28T06:41:59;95317.63;;;19.13;65.52
61961;BME280;47923;42.506;24.192;2023-05-28T06:44:26;95320.28;;;18.93;66.71
61961;BME280;47923;42.506;24.192;2023-05-28T06:46:51;94998.69;;;16.94;67.58
61961;BME280;47923;42.506;24.192;2023-05-28T06:49:17;95191.91;;;18.01;65.25
61961;BME280;47923;42.506;24.192;2023-05-28T06:51:43;95269.44;;;18.41;65.45
61961;BME280;47923;42.506;24.192;2023-05-28T06:54:08;95272.97;;;18.69;66.43
61961;BME280;47923;42.506;24.192;2023-05-28T06:56:34;95308.44;;;19.23;66.28
61961;BME280;47923;42.506;24.192;2023-05-28T06:58:59;95316.59;;;19.50;64.99
61961;BME280;47923;42.506;24.192;2023-05-28T07:01:25;95267.38;;;19.23;62.97
61961;BME280;47923;42.506;24.192;2023-05-28T07:03:51;95301.59;;;19.58;64.89
61961;BME280;47923;42.506;24.192;2023-05-28T07:06:16;95245.06;;;19.01;65.58
61961;BME280;47923;42.506;24.192;2023-05-28T07:08:41;95323.53;;;19.35;66.14
61961;BME280;47923;42.506;24.192;2023-05-28T07:11:13;95277.09;;;18.81;65.44
61961;BME280;47923;42.506;24.192;2023-05-28T07:13:39;95215.69;;;18.31;66.32
61961;BME280;47923;42.506;24.192;2023-05-28T07:16:06;94960.72;;;16.42;66.80
61961;BME280;47923;42.506;24.192;2023-05-28T07:18:32;95316.97;;;18.82;65.75
61961;BME280;47923;42.506;24.192;2023-05-28T07:20:57;95148.84;;;17.51;65.47
61961;BME280;47923;42.506;24.192;2023-05-28T07:23:23;94855.88;;;15.44;68.28
61961;BME280;47923;42.506;24.192;2023-05-28T07:25:49;95326.75;;;18.52;70.88
61961;BME280;47923;42.506;24.192;2023-05-28T07:28:14;95324.88;;;18.45;71.27
61961;BME280;47923;42.506;24.192;2023-05-28T07:30:43;95326.44;;;18.46;70.49
61961;BME280;47923;42.506;24.192;2023-05-28T07:33:09;95319.63;;;18.58;70.84
61961;BME280;47923;42.506;24.192;2023-05-28T07:35:35;95321.34;;;19.02;70.00
61961;BME280;47923;42.506;24.192;2023-05-28T07:38:03;95342.50;;;19.22;69.44
61961;BME280;47923;42.506;24.192;2023-05-28T07:40:29;95281.75;;;18.84;69.25
61961;BME280;47923;42.506;24.192;2023-05-28T07:42:54;95281.97;;;18.93;68.16
61961;BME280;47923;42.506;24.192;2023-05-28T07:45:20;95322.28;;;19.39;66.20
61961;BME280;47923;42.506;24.192;2023-05-28T07:47:45;95242.69;;;18.80;68.98
61961;BME280;47923;42.506;24.192;2023-05-28T07:50:11;95265.97;;;18.91;69.88
61961;BME280;47923;42.506;24.192;2023-05-28T07:52:37;95314.81;;;18.93;72.96
61961;BME280;47923;42.506;24.192;2023-05-28T07:55:05;95195.47;;;17.71;75.24
61961;BME280;47923;42.506;24.192;2023-05-28T07:57:30;95158.53;;;17.25;78.11
61961;BME280;47923;42.506;24.192;2023-05-28T07:59:56;95325.00;;;18.35;79.50
61961;BME280;47923;42.506;24.192;2023-05-28T08:02:21;95341.75;;;18.40;80.03
61961;BME280;47923;42.506;24.192;2023-05-28T08:04:48;95277.34;;;18.09;79.93
61961;BME280;47923;42.506;24.192;2023-05-28T08:07:14;95282.63;;;18.23;80.92
61961;BME280;47923;42.506;24.192;2023-05-28T08:09:40;95328.38;;;18.46;79.99
61961;BME280;47923;42.506;24.192;2023-05-28T08:12:07;95190.03;;;17.33;81.14
61961;BME280;47923;42.506;24.192;2023-05-28T08:14:33;95245.69;;;17.77;81.91
61961;BME280;47923;42.506;24.192;2023-05-28T08:16:59;95342.28;;;18.28;79.51
61961;BME280;47923;42.506;24.192;2023-05-28T08:19:25;95276.06;;;17.86;81.14
61961;BME280;47923;42.506;24.192;2023-05-28T08:21:51;95343.94;;;18.53;80.38
61961;BME280;47923;42.506;24.192;2023-05-28T08:24:16;95110.44;;;17.04;80.06
61961;BME280;47923;42.506;24.192;2023-05-28T08:26:42;95018.88;;;17.00;77.28
61961;BME280;47923;42.506;24.192;2023-05-28T08:29:09;95285.59;;;18.86;75.16
61961;BME280;47923;42.506;24.192;2023-05-28T08:31:34;95251.09;;;18.69;75.92
61961;BME280;47923;42.506;24.192;2023-05-28T08:34:00;95344.31;;;19.32;76.60
61961;BME280;47923;42.506;24.192;2023-05-28T08:36:25;95217.38;;;18.48;75.37
61961;BME280;47923;42.506;24.192;2023-05-28T08:38:52;95152.88;;;17.74;75.81
61961;BME280;47923;42.506;24.192;2023-05-28T08:41:18;94970.88;;;16.38;75.09
61961;BME280;47923;42.506;24.192;2023-05-28T08:43:44;95345.47;;;19.08;76.24
61961;BME280;47923;42.506;24.192;2023-05-28T08:46:10;95240.00;;;18.53;75.12
61961;BME280;47923;42.506;24.192;2023-05-28T08:48:36;95340.53;;;19.22;73.76
61961;BME280;47923;42.506;24.192;2023-05-28T08:51:02;95314.00;;;19.19;75.38
61961;BME280;47923;42.506;24.192;2023-05-28T08:53:31;95138.47;;;18.23;74.81
61961;BME280;47923;42.506;24.192;2023-05-28T08:55:58;95001.63;;;17.60;73.62
61961;BME280;47923;42.506;24.192;2023-05-28T08:58:24;95231.97;;;19.12;74.17
61961;BME280;47923;42.506;24.192;2023-05-28T09:00:50;95017.59;;;17.62;72.17
61961;BME280;47923;42.506;24.192;2023-05-28T09:03:16;95335.19;;;19.82;73.08
61961;BME280;47923;42.506;24.192;2023-05-28T09:05:41;95344.41;;;20.31;71.95
61961;BME280;47923;42.506;24.192;2023-05-28T09:08:09;95339.00;;;20.48;70.60
61961;BME280;47923;42.506;24.192;2023-05-28T09:10:36;95262.72;;;20.39;68.92
61961;BME280;47923;42.506;24.192;2023-05-28T09:13:02;95340.47;;;20.88;68.11
61961;BME280;47923;42.506;24.192;2023-05-28T09:15:28;95181.03;;;20.14;67.42
61961;BME280;47923;42.506;24.192;2023-05-28T09:18:01;95335.03;;;21.50;67.41
61961;BME280;47923;42.506;24.192;2023-05-28T09:20:27;95338.00;;;21.72;68.41
61961;BME280;47923;42.506;24.192;2023-05-28T09:23:04;95339.28;;;21.38;66.99
61961;BME280;47923;42.506;24.192;2023-05-28T09:25:34;94940.06;;;18.62;68.79
61961;BME280;47923;42.506;24.192;2023-05-28T09:28:02;95336.78;;;21.44;68.03
61961;BME280;47923;42.506;24.192;2023-05-28T09:30:28;95339.00;;;21.16;68.25
61961;BME280;47923;42.506;24.192;2023-05-28T09:33:03;95340.56;;;21.34;68.68
61961;BME280;47923;42.506;24.192;2023-05-28T09:35:30;95290.00;;;20.82;68.02
61961;BME280;47923;42.506;24.192;2023-05-28T09:38:07;95341.16;;;21.09;69.06
61961;BME280;47923;42.506;24.192;2023-05-28T09:40:41;95314.84;;;20.59;69.02
61961;BME280;47923;42.506;24.192;2023-05-28T09:43:08;95337.28;;;20.90;70.36
61961;BME280;47923;42.506;24.192;2023-05-28T09:45:34;95335.06;;;21.17;68.13
61961;BME280;47923;42.506;24.192;2023-05-28T09:48:00;95335.22;;;21.43;68.15
61961;BME280;47923;42.506;24.192;2023-05-28T09:50:26;95027.44;;;19.81;66.27
61961;BME280;47923;42.506;24.192;2023-05-28T09:52:55;95317.47;;;21.76;64.79
61961;BME280;47923;42.506;24.192;2023-05-28T09:55:24;95174.97;;;21.17;64.80
61961;BME280;47923;42.506;24.192;2023-05-28T09:58:02;95339.41;;;22.64;64.42
61961;BME280;47923;42.506;24.192;2023-05-28T10:00:35;95327.72;;;22.72;62.68
61961;BME280;47923;42.506;24.192;2023-05-28T10:03:24;95286.97;;;22.42;61.70
61961;BME280;47923;42.506;24.192;2023-05-28T10:05:56;95274.19;;;21.93;62.34
61961;BME280;47923;42.506;24.192;2023-05-28T10:08:25;95329.19;;;22.22;65.15
61961;BME280;47923;42.506;24.192;2023-05-28T10:10:53;95325.81;;;22.02;65.26
61961;BME280;47923;42.506;24.192;2023-05-28T10:13:20;95318.50;;;22.12;64.72
61961;BME280;47923;42.506;24.192;2023-05-28T10:15:47;94896.09;;;19.25;63.54
61961;BME280;47923;42.506;24.192;2023-05-28T10:18:13;95079.88;;;20.16;61.91
61961;BME280;47923;42.506;24.192;2023-05-28T10:20:43;95312.59;;;21.39;64.07
61961;BME280;47923;42.506;24.192;2023-05-28T10:23:09;95069.44;;;20.11;65.06
61961;BME280;47923;42.506;24.192;2023-05-28T10:25:36;95262.31;;;21.55;65.24
61961;BME280;47923;42.506;24.192;2023-05-28T10:28:02;95272.59;;;21.79;62.89
61961;BME280;47923;42.506;24.192;2023-05-28T10:30:34;94893.44;;;19.22;61.68
61961;BME280;47923;42.506;24.192;2023-05-28T10:33:03;95310.56;;;21.85;59.91
61961;BME280;47923;42.506;24.192;2023-05-28T10:35:32;95110.38;;;20.67;62.54
61961;BME280;47923;42.506;24.192;2023-05-28T10:38:08;95308.16;;;22.16;62.08
61961;BME280;47923;42.506;24.192;2023-05-28T10:40:39;95303.44;;;22.16;59.78
61961;BME280;47923;42.506;24.192;2023-05-28T10:43:05;95304.91;;;22.33;61.10
61961;BME280;47923;42.506;24.192;2023-05-28T10:45:37;95054.88;;;21.17;60.66
61961;BME280;47923;42.506;24.192;2023-05-28T10:48:04;95286.41;;;23.10;58.59
61961;BME280;47923;42.506;24.192;2023-05-28T10:50:30;95272.94;;;23.25;58.50
61961;BME280;47923;42.506;24.192;2023-05-28T10:53:09;95115.75;;;22.59;56.34
61961;BME280;47923;42.506;24.192;2023-05-28T10:55:52;95238.84;;;23.66;54.31
61961;BME280;47923;42.506;24.192;2023-05-28T10:58:32;95266.75;;;23.90;56.63
61961;BME280;47923;42.506;24.192;2023-05-28T11:01:04;95263.75;;;23.76;57.23
61961;BME280;47923;42.506;24.192;2023-05-28T11:03:44;95252.88;;;24.25;55.37
61961;BME280;47923;42.506;24.192;2023-05-28T11:06:12;95231.72;;;24.00;52.77
61961;BME280;47923;42.506;24.192;2023-05-28T11:08:44;95264.63;;;24.78;53.67
61961;BME280;47923;42.506;24.192;2023-05-28T11:11:17;95257.31;;;24.53;53.72
61961;BME280;47923;42.506;24.192;2023-05-28T11:13:44;95077.72;;;23.02;54.07
61961;BME280;47923;42.506;24.192;2023-05-28T11:16:12;95248.81;;;24.39;54.75
61961;BME280;47923;42.506;24.192;2023-05-28T11:18:38;95246.84;;;24.39;52.68
61961;BME280;47923;42.506;24.192;2023-05-28T11:21:08;95184.41;;;24.42;51.45
61961;BME280;47923;42.506;24.192;2023-05-28T11:23:38;95248.50;;;24.77;50.24
61961;BME280;47923;42.506;24.192;2023-05-28T11:26:05;95261.38;;;24.71;50.69
61961;BME280;47923;42.506;24.192;2023-05-28T11:28:48;95185.34;;;24.39;51.37
61961;BME280;47923;42.506;24.192;2023-05-28T11:31:14;95078.53;;;23.33;51.70
61961;BME280;47923;42.506;24.192;2023-05-28T11:33:39;95251.97;;;24.59;53.30
61961;BME280;47923;42.506;24.192;2023-05-28T11:36:05;95188.28;;;24.53;51.41
61961;BME280;47923;42.506;24.192;2023-05-28T11:38:32;95250.41;;;24.49;54.14
61961;BME280;47923;42.506;24.192;2023-05-28T11:40:59;95233.66;;;24.43;53.32
61961;BME280;47923;42.506;24.192;2023-05-28T11:43:25;94711.56;;;21.17;53.20
61961;BME280;47923;42.506;24.192;2023-05-28T11:45:51;95248.56;;;24.46;50.79
61961;BME280;47923;42.506;24.192;2023-05-28T11:48:19;95185.94;;;24.43;51.48
61961;BME280;47923;42.506;24.192;2023-05-28T11:50:45;95134.06;;;23.97;50.30
61961;BME280;47923;42.506;24.192;2023-05-28T11:53:10;95135.41;;;24.24;48.03
61961;BME280;47923;42.506;24.192;2023-05-28T11:55:37;95159.09;;;24.03;48.70
61961;BME280;47923;42.506;24.192;2023-05-28T11:58:03;95234.84;;;24.11;48.19
61961;BME280;47923;42.506;24.192;2023-05-28T12:00:30;95225.41;;;23.99;50.53
61961;BME280;47923;42.506;24.192;2023-05-28T12:03:01;95221.13;;;23.98;49.69
61961;BME280;47923;42.506;24.192;2023-05-28T12:05:26;95117.00;;;23.15;49.22
61961;BME280;47923;42.506;24.192;2023-05-28T12:07:53;95217.81;;;23.82;49.13
61961;BME280;47923;42.506;24.192;2023-05-28T12:10:20;95232.38;;;24.35;50.96
61961;BME280;47923;42.506;24.192;2023-05-28T12:12:52;95243.25;;;24.61;49.62
61961;BME280;47923;42.506;24.192;2023-05-28T12:15:21;95228.97;;;24.31;45.73
61961;BME280;47923;42.506;24.192;2023-05-28T12:17:52;95235.84;;;24.26;46.74
61961;BME280;47923;42.506;24.192;2023-05-28T12:22:43;94987.88;;;22.60;47.47
61961;BME280;47923;42.506;24.192;2023-05-28T12:25:10;95235.50;;;24.46;44.27
61961;BME280;47923;42.506;24.192;2023-05-28T12:27:36;95229.91;;;24.68;46.35
61961;BME280;47923;42.506;24.192;2023-05-28T12:30:05;95011.09;;;23.16;44.23
61961;BME280;47923;42.506;24.192;2023-05-28T12:32:32;94920.06;;;22.10;44.55
61961;BME280;47923;42.506;24.192;2023-05-28T12:34:59;95147.38;;;23.46;47.22
61961;BME280;47923;42.506;24.192;2023-05-28T12:37:25;95224.44;;;24.15;46.59
61961;BME280;47923;42.506;24.192;2023-05-28T12:39:51;95225.09;;;23.97;44.34
61961;BME280;47923;42.506;24.192;2023-05-28T12:42:17;95130.28;;;23.51;45.86
61961;BME280;47923;42.506;24.192;2023-05-28T12:44:43;95090.88;;;22.85;44.42
61961;BME280;47923;42.506;24.192;2023-05-28T12:47:09;95195.34;;;24.23;46.18
61961;BME280;47923;42.506;24.192;2023-05-28T12:49:34;95209.59;;;24.53;44.62
61961;BME280;47923;42.506;24.192;2023-05-28T12:52:00;95108.28;;;23.91;45.39